Terminal Aerodrome Forecast
Issued by NWS

Home | Current Version | Previous Version | Text Only | Print | Product List | Glossary On
Versions: 1 2 3 4 5 6 7 8 9 10 11 12 13 14
704
FTUS42 KMLB 231143
TAFSUA
TAF
KSUA 231143Z 2312/2412 16005KT P6SM VCSH SCT025 BKN140 BKN250
     FM231600 11008KT P6SM VCTS SCT035CB SCT080 BKN120
      TEMPO 2316/2319 3SM TSRA BKN030CB BKN080
     FM232200 VRB04KT P6SM VCSH SCT040 BKN100
     FM240200 VRB02KT P6SM FEW040 BKN200=

USA.gov is the U.S. government's official web portal to all federal, state and local government web resources and services.